createdAt,value
2022-08-20T00:02:41.008Z,56.55
2022-08-20T00:15:42.269Z,56.64
2022-08-20T00:18:23.349Z,56.57
2022-08-20T00:20:58.729Z,56.84
2022-08-20T00:23:33.489Z,56.59
2022-08-20T00:26:10.069Z,56.99
2022-08-20T00:42:26.329Z,56.93
2022-08-20T00:45:00.309Z,56.79
2022-08-20T00:47:34.369Z,57.24
2022-08-20T00:50:09.989Z,57.19
2022-08-20T00:52:49.360Z,57.04
2022-08-20T00:55:31.395Z,57.11
2022-08-20T01:08:31.310Z,57.80
2022-08-20T01:11:12.330Z,57.51
2022-08-20T01:13:47.297Z,57.66
2022-08-20T01:16:30.352Z,57.68
2022-08-20T01:19:04.629Z,57.85
2022-08-20T01:22:10.330Z,58.02
2022-08-20T01:35:27.358Z,58.11
2022-08-20T01:38:01.221Z,58.43
2022-08-20T01:41:06.371Z,58.36
2022-08-20T01:43:40.811Z,58.01
2022-08-20T01:46:17.029Z,58.06
2022-08-20T02:00:20.224Z,58.03
2022-08-20T02:02:58.129Z,58.72
2022-08-20T02:05:32.308Z,58.39
2022-08-20T02:08:06.513Z,58.05
2022-08-20T02:10:42.352Z,58.55
2022-08-20T02:13:17.254Z,58.31
2022-08-20T02:15:51.313Z,58.39
2022-08-20T02:29:04.377Z,58.70
2022-08-20T02:32:23.461Z,58.60
2022-08-20T02:34:43.162Z,58.79
2022-08-20T02:37:18.599Z,58.85
2022-08-20T02:39:53.335Z,58.46
2022-08-20T02:42:27.471Z,58.43
2022-08-20T02:55:27.985Z,58.74
2022-08-20T02:58:09.348Z,59.12
2022-08-20T03:00:43.609Z,59.08
2022-08-20T03:03:19.347Z,58.75
2022-08-20T03:05:56.269Z,58.88
2022-08-20T03:22:28.330Z,59.45
2022-08-20T03:25:03.210Z,59.06
2022-08-20T03:27:37.389Z,58.92
2022-08-20T03:30:15.731Z,59.10
2022-08-20T03:32:57.308Z,59.34
2022-08-20T03:35:33.649Z,59.63
2022-08-20T03:48:31.310Z,59.53
2022-08-20T03:51:12.369Z,59.27
2022-08-20T03:53:46.369Z,59.56
2022-08-20T03:56:21.589Z,59.44
2022-08-20T03:58:56.658Z,59.51
2022-08-20T04:01:46.267Z,59.89
2022-08-20T04:14:59.350Z,60.13
2022-08-20T04:17:38.549Z,59.70
2022-08-20T04:20:24.369Z,60.01
2022-08-20T04:22:59.193Z,60.16
2022-08-20T04:25:36.118Z,60.10
2022-08-20T04:42:18.312Z,60.22
2022-08-20T04:44:58.375Z,60.34
2022-08-20T04:47:34.606Z,60.35
2022-08-20T04:50:18.369Z,60.59
2022-08-20T04:52:53.851Z,60.65
2022-08-20T04:55:28.330Z,60.54
2022-08-20T05:08:24.324Z,60.58
2022-08-20T05:11:24.167Z,60.36
2022-08-20T05:14:01.364Z,60.26
2022-08-20T05:16:35.906Z,60.69
2022-08-20T05:19:10.347Z,60.76
2022-08-20T05:21:44.224Z,60.50
2022-08-20T05:34:36.564Z,60.20
2022-08-20T05:37:20.065Z,60.27
2022-08-20T05:39:54.944Z,60.30
2022-08-20T05:42:30.212Z,60.62
2022-08-20T05:45:11.087Z,60.18
2022-08-20T05:47:54.257Z,60.46
2022-08-20T06:01:10.406Z,60.41
2022-08-20T06:03:45.204Z,60.42
2022-08-20T06:06:45.230Z,60.37
2022-08-20T06:09:30.753Z,60.31
2022-08-20T06:12:14.364Z,60.55
2022-08-20T06:14:48.204Z,60.64
2022-08-20T06:17:25.304Z,60.85
2022-08-20T06:27:55.320Z,60.84
2022-08-20T06:30:38.325Z,60.80
2022-08-20T06:33:14.124Z,60.81
2022-08-20T06:35:48.385Z,60.64
2022-08-20T06:38:22.524Z,60.74
2022-08-20T06:40:57.372Z,60.97
2022-08-20T06:54:39.291Z,61.09
2022-08-20T06:57:13.892Z,61.12
2022-08-20T06:59:54.287Z,60.83
2022-08-20T07:02:30.601Z,60.68
2022-08-20T07:05:04.312Z,60.77
2022-08-20T07:07:38.355Z,61.12
2022-08-20T07:21:13.314Z,60.93
2022-08-20T07:23:55.379Z,60.77
2022-08-20T07:26:29.112Z,60.87
2022-08-20T07:29:03.393Z,61.12
2022-08-20T07:31:37.392Z,60.70
2022-08-20T07:34:12.373Z,61.38
2022-08-20T07:36:46.215Z,60.78
2022-08-20T07:49:36.276Z,61.46
2022-08-20T07:52:16.505Z,60.97
2022-08-20T07:54:51.213Z,61.18
2022-08-20T07:57:25.337Z,61.34
2022-08-20T07:59:59.645Z,61.63
2022-08-20T08:02:34.277Z,61.12
2022-08-20T08:15:53.617Z,61.28
2022-08-20T08:18:35.539Z,61.16
2022-08-20T08:21:17.377Z,61.36
2022-08-20T08:23:51.457Z,61.25
2022-08-20T08:26:25.377Z,61.28
2022-08-20T08:42:06.297Z,61.73
2022-08-20T08:44:54.359Z,61.60
2022-08-20T08:47:34.937Z,61.25
2022-08-20T08:50:53.214Z,61.34
2022-08-20T08:53:30.157Z,61.14
2022-08-20T08:56:13.777Z,60.86
2022-08-20T09:09:33.368Z,60.73
2022-08-20T09:12:13.497Z,61.16
2022-08-20T09:14:55.337Z,61.13
2022-08-20T09:17:29.145Z,61.23
2022-08-20T09:20:03.657Z,61.32
2022-08-20T09:22:38.218Z,61.11
2022-08-20T09:35:28.317Z,61.02
2022-08-20T09:38:08.357Z,61.25
2022-08-20T09:40:42.186Z,61.15
2022-08-20T09:43:16.422Z,61.12
2022-08-20T09:45:50.425Z,61.54
2022-08-20T10:01:52.626Z,61.19
2022-08-20T10:04:27.239Z,61.18
2022-08-20T10:07:01.337Z,61.05
2022-08-20T10:09:36.597Z,61.44
2022-08-20T10:12:12.356Z,61.52
2022-08-20T10:14:46.138Z,61.25
2022-08-20T10:17:22.366Z,61.36
2022-08-20T10:30:32.357Z,61.25
2022-08-20T10:33:08.078Z,61.00
2022-08-20T10:35:42.356Z,60.91
2022-08-20T10:38:16.377Z,60.84
2022-08-20T10:40:52.250Z,60.66
2022-08-20T10:57:33.297Z,60.70
2022-08-20T11:00:16.418Z,61.21
2022-08-20T11:02:50.278Z,61.08
2022-08-20T11:05:26.219Z,60.75
2022-08-20T11:08:04.151Z,60.96
2022-08-20T11:10:45.337Z,60.90
2022-08-20T11:23:27.378Z,61.61
2022-08-20T11:26:01.505Z,61.12
2022-08-20T11:28:38.684Z,61.56
2022-08-20T11:31:13.297Z,61.60
2022-08-20T11:33:47.377Z,61.85
2022-08-20T11:36:21.196Z,61.77
2022-08-20T11:49:12.305Z,61.39
2022-08-20T11:51:52.318Z,61.38
2022-08-20T11:54:26.444Z,61.99
2022-08-20T11:57:00.336Z,61.27
2022-08-20T11:59:34.377Z,62.09
2022-08-20T12:02:12.299Z,61.90
2022-08-20T12:15:41.377Z,62.13
2022-08-20T12:18:15.218Z,62.53
2022-08-20T12:20:50.825Z,61.83
2022-08-20T12:23:25.145Z,62.89
2022-08-20T12:25:59.421Z,62.60
2022-08-20T12:28:34.257Z,62.90
2022-08-20T12:31:12.657Z,62.94
2022-08-20T12:44:23.357Z,62.97
2022-08-20T12:47:15.337Z,62.85
2022-08-20T12:50:01.362Z,63.12
2022-08-20T12:52:35.497Z,62.97
2022-08-20T13:09:11.380Z,62.73
2022-08-20T13:11:45.073Z,62.70
2022-08-20T13:14:19.435Z,62.74
2022-08-20T13:16:57.394Z,62.92
2022-08-20T13:19:44.375Z,62.46
2022-08-20T13:22:18.394Z,62.59
2022-08-20T13:35:52.255Z,62.18
2022-08-20T13:38:34.414Z,62.14
2022-08-20T13:41:08.594Z,61.97
2022-08-20T13:43:42.694Z,62.18
2022-08-20T13:46:17.142Z,61.72
2022-08-20T13:48:51.514Z,61.83
2022-08-20T13:51:27.701Z,62.32
2022-08-20T14:04:28.650Z,62.10
2022-08-20T14:07:18.642Z,61.86
2022-08-20T14:09:57.780Z,61.93
2022-08-20T14:12:38.382Z,62.15
2022-08-20T14:15:12.662Z,62.13
2022-08-20T14:17:49.748Z,62.36
2022-08-20T14:31:02.401Z,61.96
2022-08-20T14:33:36.789Z,62.08
2022-08-20T14:36:13.747Z,62.07
2022-08-20T14:38:48.281Z,62.04
2022-08-20T14:41:22.365Z,62.24
2022-08-20T14:57:59.332Z,62.63
2022-08-20T15:00:40.387Z,62.44
2022-08-20T15:03:14.240Z,62.34
2022-08-20T15:05:48.390Z,62.42
2022-08-20T15:08:28.787Z,62.32
2022-08-20T15:11:09.300Z,62.60
2022-08-20T15:24:22.323Z,62.63
2022-08-20T15:26:56.221Z,62.78
2022-08-20T15:29:30.341Z,62.40
2022-08-20T15:32:04.620Z,62.81
2022-08-20T15:34:38.307Z,62.80
2022-08-20T15:37:16.360Z,62.73
2022-08-20T15:50:25.358Z,62.57
2022-08-20T15:53:16.376Z,62.33
2022-08-20T15:56:01.969Z,62.22
2022-08-20T15:58:55.316Z,61.87
2022-08-20T16:01:42.136Z,61.84
2022-08-20T16:18:13.336Z,61.69
2022-08-20T16:20:52.735Z,61.98
2022-08-20T16:23:38.535Z,61.94
2022-08-20T16:26:40.625Z,61.77
2022-08-20T16:29:31.364Z,61.86
2022-08-20T16:32:13.336Z,61.86
2022-08-20T16:45:19.276Z,61.36
2022-08-20T16:48:06.430Z,60.72
2022-08-20T16:50:55.296Z,60.77
2022-08-20T16:53:36.536Z,61.08
2022-08-20T16:56:11.314Z,60.83
2022-08-20T17:09:46.316Z,61.22
2022-08-20T17:12:35.376Z,60.93
2022-08-20T17:15:22.136Z,61.36
2022-08-20T17:18:03.395Z,61.80
2022-08-20T17:20:45.085Z,61.62
2022-08-20T17:37:05.321Z,61.56
2022-08-20T17:39:48.376Z,61.30
2022-08-20T17:42:34.068Z,61.28
2022-08-20T17:45:16.088Z,61.25
2022-08-20T17:47:58.347Z,60.84
2022-08-20T17:50:36.968Z,61.05
2022-08-20T17:53:26.308Z,61.00
2022-08-20T18:03:30.468Z,61.16
2022-08-20T18:06:28.491Z,61.04
2022-08-20T18:09:16.849Z,60.99
2022-08-20T18:12:07.348Z,61.24
2022-08-20T18:15:08.175Z,61.38
2022-08-20T18:18:21.324Z,61.27
2022-08-20T18:31:39.216Z,61.71
2022-08-20T18:34:15.657Z,61.41
2022-08-20T18:37:07.339Z,61.35
2022-08-20T18:39:46.329Z,61.63
2022-08-20T18:42:33.385Z,61.55
2022-08-20T18:59:17.318Z,61.41
2022-08-20T19:01:57.362Z,61.80
2022-08-20T19:04:33.857Z,61.30
2022-08-20T19:07:21.338Z,61.22
2022-08-20T19:10:43.616Z,61.61
2022-08-20T19:24:01.297Z,61.87
2022-08-20T19:26:50.385Z,61.88
2022-08-20T19:29:32.918Z,61.65
2022-08-20T19:32:25.759Z,61.85
2022-08-20T19:35:03.537Z,62.20
2022-08-20T19:37:52.359Z,62.40
2022-08-20T19:51:18.918Z,62.94
2022-08-20T19:53:54.178Z,62.74
2022-08-20T19:56:33.419Z,62.80
2022-08-20T19:59:10.117Z,62.61
2022-08-20T20:01:59.387Z,62.77
2022-08-20T20:04:41.238Z,63.03
2022-08-20T20:07:46.447Z,63.13
2022-08-20T20:17:37.346Z,63.06
2022-08-20T20:20:35.338Z,62.83
2022-08-20T20:23:18.118Z,63.16
2022-08-20T20:26:06.348Z,62.87
2022-08-20T20:28:46.946Z,63.05
2022-08-20T20:31:34.324Z,63.11
2022-08-20T20:44:49.318Z,63.29
2022-08-20T20:47:27.665Z,63.37
2022-08-20T20:50:12.305Z,63.25
2022-08-20T20:52:52.891Z,63.66
2022-08-20T20:55:37.641Z,63.48
2022-08-20T20:58:12.011Z,63.71
2022-08-20T21:11:02.274Z,64.24
2022-08-20T21:13:42.488Z,64.29
2022-08-20T21:16:20.018Z,64.01
2022-08-20T21:18:54.353Z,64.26
2022-08-20T21:21:28.051Z,64.43
2022-08-20T21:24:02.324Z,64.37
2022-08-20T21:26:39.275Z,64.49
2022-08-20T21:39:34.352Z,64.37
2022-08-20T21:42:29.370Z,64.45
2022-08-20T21:45:07.274Z,64.55
2022-08-20T21:47:49.336Z,64.76
2022-08-20T21:50:23.671Z,64.79
2022-08-20T22:05:57.359Z,64.51
2022-08-20T22:08:31.338Z,64.72
2022-08-20T22:11:06.335Z,64.48
2022-08-20T22:13:40.503Z,64.62
2022-08-20T22:16:17.363Z,65.15
2022-08-20T22:32:54.278Z,64.88
2022-08-20T22:35:35.321Z,65.03
2022-08-20T22:38:08.976Z,65.19
2022-08-20T22:40:43.318Z,64.78
2022-08-20T22:43:17.434Z,65.38
2022-08-20T22:45:55.471Z,65.01
2022-08-20T22:48:31.969Z,65.14
2022-08-20T22:57:55.363Z,65.22
2022-08-20T23:00:31.585Z,65.50
2022-08-20T23:03:09.562Z,65.34
2022-08-20T23:05:47.535Z,65.19
2022-08-20T23:08:33.315Z,65.40
2022-08-20T23:11:07.230Z,65.81
2022-08-20T23:26:38.303Z,65.55
2022-08-20T23:29:16.200Z,65.59
2022-08-20T23:32:05.296Z,65.52
2022-08-20T23:34:39.596Z,65.70
2022-08-20T23:37:14.365Z,65.88
2022-08-20T23:51:10.163Z,65.88
2022-08-20T23:53:46.248Z,66.32
2022-08-20T23:56:20.319Z,66.05
2022-08-20T23:58:54.394Z,66.17
